createdAt,value
2022-11-04T00:00:18.881Z,3.97
2022-11-04T00:02:47.538Z,4.70
2022-11-04T00:05:17.653Z,4.08
2022-11-04T00:08:03.059Z,4.36
2022-11-04T00:10:45.471Z,4.51
2022-11-04T00:13:14.089Z,4.14
2022-11-04T00:16:00.440Z,4.41
2022-11-04T00:18:29.359Z,4.39
2022-11-04T00:21:17.168Z,4.15
2022-11-04T00:24:05.673Z,4.68
2022-11-04T00:26:51.728Z,4.50
2022-11-04T00:29:20.326Z,4.81
2022-11-04T00:32:06.256Z,4.80
2022-11-04T00:34:34.820Z,4.42
2022-11-04T00:37:05.009Z,4.21
2022-11-04T00:39:33.764Z,4.44
2022-11-04T00:42:02.495Z,4.91
2022-11-04T00:44:31.123Z,5.02
2022-11-04T00:46:59.766Z,4.52
2022-11-04T00:49:28.012Z,4.98
2022-11-04T00:51:56.749Z,5.00
2022-11-04T00:54:26.908Z,4.36
2022-11-04T00:56:55.699Z,5.06
2022-11-04T00:59:24.737Z,4.41
2022-11-04T01:01:53.188Z,5.13
2022-11-04T01:04:21.954Z,4.46
2022-11-04T01:06:50.957Z,5.22
2022-11-04T01:09:19.751Z,5.18
2022-11-04T01:11:49.916Z,5.05
2022-11-04T01:14:18.552Z,5.05
2022-11-04T01:16:47.024Z,5.14
2022-11-04T01:19:15.632Z,4.90
2022-11-04T01:21:44.336Z,5.01
2022-11-04T01:24:12.963Z,5.01
2022-11-04T01:26:41.608Z,5.44
2022-11-04T01:29:11.600Z,4.32
2022-11-04T01:31:39.867Z,5.17
2022-11-04T01:34:08.778Z,4.59
2022-11-04T01:36:37.551Z,4.73
2022-11-04T01:39:06.257Z,5.08
2022-11-04T01:41:35.629Z,5.08
2022-11-04T01:44:06.462Z,5.06
2022-11-04T01:46:39.106Z,4.92
2022-11-04T01:49:16.987Z,5.16
2022-11-04T01:51:47.880Z,4.96
2022-11-04T01:54:16.994Z,4.89
2022-11-04T01:56:45.867Z,4.95
2022-11-04T01:59:17.953Z,5.18
2022-11-04T02:01:48.059Z,5.41
2022-11-04T02:04:30.239Z,5.08
2022-11-04T02:07:00.137Z,5.35
2022-11-04T02:09:30.585Z,5.48
2022-11-04T02:12:16.684Z,5.56
2022-11-04T02:14:46.168Z,5.59
2022-11-04T02:17:25.564Z,5.61
2022-11-04T02:20:02.698Z,5.55
2022-11-04T02:22:50.161Z,4.96
2022-11-04T02:25:33.956Z,4.32
2022-11-04T02:28:23.999Z,4.58
2022-11-04T02:30:56.363Z,4.67
2022-11-04T02:33:28.324Z,4.70
2022-11-04T02:36:03.547Z,4.85
2022-11-04T02:38:37.466Z,5.07
2022-11-04T02:41:13.837Z,5.15
2022-11-04T02:43:49.333Z,5.12
2022-11-04T02:46:23.386Z,4.59
2022-11-04T02:48:56.208Z,4.77
2022-11-04T02:51:29.788Z,4.81
2022-11-04T02:54:05.868Z,4.70
2022-11-04T02:56:37.946Z,4.61
2022-11-04T02:59:08.807Z,5.00
2022-11-04T03:01:42.140Z,5.03
2022-11-04T03:04:14.903Z,4.27
2022-11-04T03:06:45.229Z,4.44
2022-11-04T03:09:15.156Z,4.56
2022-11-04T03:11:46.169Z,4.85
2022-11-04T03:14:18.228Z,5.01
2022-11-04T03:16:49.283Z,5.32
2022-11-04T03:19:21.484Z,5.27
2022-11-04T03:21:54.935Z,5.08
2022-11-04T03:24:23.884Z,4.66
2022-11-04T03:26:56.948Z,4.88
2022-11-04T03:29:28.179Z,5.16
2022-11-04T03:32:05.100Z,5.12
2022-11-04T03:34:34.263Z,5.46
2022-11-04T03:37:03.180Z,5.23
2022-11-04T03:39:32.144Z,4.98
2022-11-04T03:42:03.398Z,5.21
2022-11-04T03:44:32.017Z,5.28
2022-11-04T03:47:02.143Z,5.10
2022-11-04T03:49:30.870Z,5.55
2022-11-04T03:51:59.648Z,5.45
2022-11-04T03:54:29.181Z,5.47
2022-11-04T03:57:11.107Z,5.46
2022-11-04T04:00:11.572Z,5.66
2022-11-04T04:02:43.367Z,5.92
2022-11-04T04:05:18.667Z,5.49
2022-11-04T04:07:50.942Z,5.85
2022-11-04T04:10:41.903Z,5.67
2022-11-04T04:13:26.844Z,5.73
2022-11-04T04:15:58.372Z,5.65
2022-11-04T04:18:33.148Z,5.40
2022-11-04T04:21:04.707Z,5.89
2022-11-04T04:24:08.058Z,5.58
2022-11-04T04:26:54.836Z,5.48
2022-11-04T04:29:23.912Z,5.60
2022-11-04T04:31:57.937Z,5.62
2022-11-04T04:34:31.378Z,5.74
2022-11-04T04:37:03.577Z,5.23
2022-11-04T04:39:55.868Z,5.52
2022-11-04T04:42:42.056Z,5.66
2022-11-04T04:45:11.733Z,5.85
2022-11-04T04:47:44.330Z,5.58
2022-11-04T04:50:16.167Z,6.20
2022-11-04T04:52:47.480Z,5.64
2022-11-04T04:55:16.625Z,5.25
2022-11-04T04:57:45.569Z,5.59
2022-11-04T05:00:16.312Z,5.71
2022-11-04T05:02:45.547Z,5.94
2022-11-04T05:05:20.045Z,5.59
2022-11-04T05:07:48.735Z,5.63
2022-11-04T05:10:18.647Z,5.25
2022-11-04T05:13:04.698Z,5.67
2022-11-04T05:15:33.733Z,5.88
2022-11-04T05:18:03.417Z,5.63
2022-11-04T05:20:34.472Z,5.56
2022-11-04T05:23:03.267Z,5.86
2022-11-04T05:25:33.119Z,5.54
2022-11-04T05:28:02.590Z,5.60
2022-11-04T05:30:31.514Z,5.69
2022-11-04T05:33:03.654Z,5.55
2022-11-04T05:35:35.803Z,5.74
2022-11-04T05:38:04.185Z,6.10
2022-11-04T05:40:32.656Z,6.00
2022-11-04T05:43:01.695Z,5.90
2022-11-04T05:45:30.687Z,5.91
2022-11-04T05:48:00.459Z,6.35
2022-11-04T05:50:29.567Z,6.14
2022-11-04T05:53:00.054Z,6.10
2022-11-04T05:55:28.808Z,6.15
2022-11-04T05:57:59.371Z,6.15
2022-11-04T06:00:28.696Z,6.05
2022-11-04T06:02:58.452Z,6.22
2022-11-04T06:05:27.546Z,6.48
2022-11-04T06:07:55.768Z,6.46
2022-11-04T06:10:26.046Z,6.70
2022-11-04T06:12:54.728Z,6.21
2022-11-04T06:15:23.424Z,6.65
2022-11-04T06:17:52.186Z,6.53
2022-11-04T06:20:20.866Z,6.38
2022-11-04T06:22:49.910Z,6.77
2022-11-04T06:25:18.655Z,6.59
2022-11-04T06:27:48.753Z,6.41
2022-11-04T06:30:17.614Z,6.52
2022-11-04T06:32:46.296Z,6.35
2022-11-04T06:35:15.102Z,6.43
2022-11-04T06:37:43.381Z,6.41
2022-11-04T06:40:12.713Z,6.67
2022-11-04T06:42:43.009Z,6.75
2022-11-04T06:45:13.158Z,6.51
2022-11-04T06:47:41.939Z,6.65
2022-11-04T06:50:11.065Z,6.35
2022-11-04T06:52:42.363Z,6.86
2022-11-04T06:55:11.936Z,6.56
2022-11-04T06:57:40.720Z,6.74
2022-11-04T07:00:10.543Z,6.49
2022-11-04T07:02:40.864Z,6.17
2022-11-04T07:05:09.975Z,7.03
2022-11-04T07:07:38.394Z,6.85
2022-11-04T07:10:08.048Z,6.72
2022-11-04T07:12:36.728Z,6.65
2022-11-04T07:15:05.984Z,6.71
2022-11-04T07:17:34.840Z,6.87
2022-11-04T07:20:06.630Z,7.16
2022-11-04T07:22:34.934Z,6.67
2022-11-04T07:25:03.727Z,7.23
2022-11-04T07:27:32.425Z,6.64
2022-11-04T07:30:01.134Z,7.03
2022-11-04T07:32:30.211Z,6.65
2022-11-04T07:34:58.846Z,6.24
2022-11-04T07:37:28.585Z,7.08
2022-11-04T07:39:57.251Z,6.87
2022-11-04T07:42:25.855Z,6.87
2022-11-04T07:44:57.347Z,6.89
2022-11-04T07:47:25.929Z,7.27
2022-11-04T07:49:54.232Z,7.27
2022-11-04T07:52:23.025Z,7.34
2022-11-04T07:54:53.067Z,7.45
2022-11-04T07:57:22.517Z,6.89
2022-11-04T07:59:51.239Z,7.45
2022-11-04T08:02:25.799Z,7.15
2022-11-04T08:04:56.054Z,6.72
2022-11-04T08:07:24.717Z,6.43
2022-11-04T08:09:55.032Z,6.94
2022-11-04T08:12:24.537Z,6.19
2022-11-04T08:14:53.071Z,6.97
2022-11-04T08:17:21.732Z,7.48
2022-11-04T08:19:50.496Z,7.35
2022-11-04T08:22:19.378Z,7.16
2022-11-04T08:24:48.530Z,7.78
2022-11-04T08:27:18.652Z,7.13
2022-11-04T08:29:47.234Z,7.69
2022-11-04T08:32:16.022Z,7.84
2022-11-04T08:34:44.344Z,8.03
2022-11-04T08:37:15.347Z,8.09
2022-11-04T08:39:44.022Z,7.79
2022-11-04T08:42:12.667Z,7.69
2022-11-04T08:44:42.990Z,7.71
2022-11-04T08:47:11.610Z,7.65
2022-11-04T08:49:41.160Z,7.60
2022-11-04T08:52:10.228Z,7.51
2022-11-04T08:54:38.913Z,7.46
2022-11-04T08:57:08.255Z,7.64
2022-11-04T08:59:37.654Z,7.41
2022-11-04T09:02:08.215Z,7.20
2022-11-04T09:04:38.714Z,7.71
2022-11-04T09:07:08.435Z,7.36
2022-11-04T09:09:37.219Z,7.84
2022-11-04T09:12:06.168Z,7.52
2022-11-04T09:14:34.887Z,7.93
2022-11-04T09:17:03.489Z,7.88
2022-11-04T09:19:33.197Z,8.47
2022-11-04T09:22:02.000Z,8.45
2022-11-04T09:24:32.020Z,8.43
2022-11-04T09:27:00.950Z,8.33
2022-11-04T09:29:33.665Z,8.06
2022-11-04T09:32:02.350Z,7.93
2022-11-04T09:34:32.391Z,7.74
2022-11-04T09:37:01.062Z,8.45
2022-11-04T09:39:29.699Z,8.62
2022-11-04T09:42:15.338Z,8.55
2022-11-04T09:45:19.625Z,8.50
2022-11-04T09:47:39.774Z,8.89
2022-11-04T09:50:12.448Z,9.77
2022-11-04T09:52:44.718Z,9.86
2022-11-04T09:55:18.111Z,10.05
2022-11-04T09:57:56.545Z,9.33
2022-11-04T10:00:26.031Z,9.16
2022-11-04T10:03:02.095Z,10.12
2022-11-04T10:05:41.735Z,9.51
2022-11-04T10:08:24.546Z,10.27
2022-11-04T10:10:57.695Z,10.73
2022-11-04T10:13:30.751Z,10.73
2022-11-04T10:16:12.860Z,12.10
2022-11-04T10:19:10.783Z,14.57
2022-11-04T10:21:47.607Z,15.42
2022-11-04T10:24:21.286Z,15.63
2022-11-04T10:27:00.405Z,17.66
2022-11-04T10:29:34.083Z,17.97
2022-11-04T10:32:06.995Z,18.89
2022-11-04T10:34:38.872Z,18.27
2022-11-04T10:37:13.185Z,21.10
2022-11-04T10:39:45.112Z,19.63
2022-11-04T10:42:16.143Z,15.15
2022-11-04T10:44:45.401Z,17.24
2022-11-04T10:47:22.191Z,20.34
2022-11-04T10:50:27.298Z,21.18
2022-11-04T10:52:47.802Z,20.19
2022-11-04T10:55:27.070Z,21.62
2022-11-04T10:57:56.956Z,18.33
2022-11-04T11:00:37.092Z,21.64
2022-11-04T11:03:24.626Z,19.43
2022-11-04T11:05:53.841Z,17.89
2022-11-04T11:08:31.949Z,18.31
2022-11-04T11:11:00.442Z,15.54
2022-11-04T11:13:35.749Z,16.43
2022-11-04T11:16:11.858Z,19.66
2022-11-04T11:18:42.122Z,21.08
2022-11-04T11:21:12.373Z,22.79
2022-11-04T11:23:47.396Z,24.93
2022-11-04T11:26:18.726Z,23.87
2022-11-04T11:28:55.795Z,21.28
2022-11-04T11:31:27.655Z,21.70
2022-11-04T11:33:58.069Z,23.35
2022-11-04T11:36:28.028Z,22.13
2022-11-04T11:39:05.832Z,21.04
2022-11-04T11:41:40.973Z,22.22
2022-11-04T11:44:20.946Z,22.65
2022-11-04T11:46:54.640Z,20.25
2022-11-04T11:49:28.499Z,18.76
2022-11-04T11:51:57.506Z,21.87
2022-11-04T11:54:33.954Z,20.97
2022-11-04T11:57:15.151Z,18.14
2022-11-04T12:02:49.118Z,20.34
2022-11-04T12:11:17.723Z,20.21
2022-11-04T12:13:50.605Z,21.45
2022-11-04T12:16:28.776Z,22.12
2022-11-04T12:19:31.284Z,22.28
2022-11-04T12:22:03.514Z,19.59
2022-11-04T12:24:39.526Z,19.11
2022-11-04T12:27:16.510Z,19.40
2022-11-04T12:30:00.439Z,19.08
2022-11-04T12:32:37.667Z,19.26
2022-11-04T12:35:18.606Z,17.78
2022-11-04T12:37:54.466Z,18.45
2022-11-04T12:40:26.705Z,19.12
2022-11-04T12:43:07.094Z,19.06
2022-11-04T12:45:44.799Z,19.91
2022-11-04T12:48:28.482Z,19.01
2022-11-04T12:51:03.079Z,15.29
2022-11-04T12:53:43.696Z,13.00
2022-11-04T12:56:13.484Z,12.56
2022-11-04T12:59:02.346Z,11.92
2022-11-04T13:01:34.803Z,12.21
2022-11-04T13:04:07.869Z,12.92
2022-11-04T13:06:41.259Z,11.93
2022-11-04T13:09:13.658Z,13.83
2022-11-04T13:11:46.864Z,12.95
2022-11-04T13:14:23.984Z,12.23
2022-11-04T13:16:53.066Z,12.30
2022-11-04T13:19:28.708Z,11.74
2022-11-04T13:21:58.570Z,11.42
2022-11-04T13:24:31.878Z,10.56
2022-11-04T13:27:04.648Z,10.88
2022-11-04T13:29:37.076Z,10.99
2022-11-04T13:32:12.297Z,11.37
2022-11-04T13:34:48.898Z,11.54
2022-11-04T13:37:22.572Z,11.17
2022-11-04T13:39:54.937Z,11.83
2022-11-04T13:42:44.204Z,12.44
2022-11-04T13:45:16.406Z,11.12
2022-11-04T13:47:48.866Z,10.63
2022-11-04T13:50:35.517Z,10.62
2022-11-04T13:53:04.925Z,10.73
2022-11-04T13:55:35.968Z,10.02
2022-11-04T13:58:06.676Z,10.43
2022-11-04T14:00:37.662Z,10.33
2022-11-04T14:03:40.322Z,10.04
2022-11-04T14:06:10.855Z,10.03
2022-11-04T14:09:14.373Z,9.87
2022-11-04T14:12:24.660Z,9.47
2022-11-04T14:14:56.060Z,9.80
2022-11-04T14:18:02.280Z,9.86
2022-11-04T14:20:33.446Z,9.88
2022-11-04T14:23:03.729Z,10.07
2022-11-04T14:25:38.005Z,9.92
2022-11-04T14:28:27.520Z,10.20
2022-11-04T14:30:58.944Z,10.13
2022-11-04T14:33:35.460Z,10.08
2022-11-04T14:36:26.848Z,10.29
2022-11-04T14:38:56.182Z,10.09
2022-11-04T14:41:34.398Z,10.15
2022-11-04T14:44:04.511Z,9.78
2022-11-04T14:46:42.112Z,10.13
2022-11-04T14:49:32.949Z,9.95
2022-11-04T14:52:01.541Z,9.65
2022-11-04T14:54:32.723Z,9.97
2022-11-04T14:57:11.156Z,9.90
2022-11-04T14:59:39.851Z,9.78
2022-11-04T15:02:16.547Z,9.89
2022-11-04T15:04:58.120Z,9.86
2022-11-04T15:07:37.418Z,9.76
2022-11-04T15:10:21.089Z,9.56
2022-11-04T15:12:52.544Z,9.53
2022-11-04T15:15:32.881Z,9.68
2022-11-04T15:18:05.260Z,9.54
2022-11-04T15:20:46.639Z,9.34
2022-11-04T15:23:18.281Z,9.40
2022-11-04T15:25:48.647Z,9.65
2022-11-04T15:28:22.701Z,9.58
2022-11-04T15:31:06.112Z,9.31
2022-11-04T15:33:41.047Z,9.46
2022-11-04T15:36:12.027Z,9.42
2022-11-04T15:38:43.106Z,9.44
2022-11-04T15:41:33.159Z,9.24
2022-11-04T15:44:04.119Z,8.81
2022-11-04T15:46:32.885Z,8.92
2022-11-04T15:49:05.721Z,9.11
2022-11-04T15:51:39.333Z,9.20
2022-11-04T15:54:16.509Z,9.12
2022-11-04T15:56:50.132Z,9.24
2022-11-04T15:59:21.221Z,9.20
2022-11-04T16:01:50.954Z,9.28
2022-11-04T16:04:23.019Z,9.06
2022-11-04T16:07:06.590Z,9.13
2022-11-04T16:09:47.357Z,9.25
2022-11-04T16:12:18.552Z,9.12
2022-11-04T16:14:52.276Z,9.08
2022-11-04T16:17:21.325Z,8.81
2022-11-04T16:19:53.001Z,8.85
2022-11-04T16:22:26.794Z,8.74
2022-11-04T16:24:56.077Z,8.77
2022-11-04T16:27:24.968Z,8.91
2022-11-04T16:30:03.420Z,9.24
2022-11-04T16:32:40.576Z,9.13
2022-11-04T16:35:16.442Z,8.19
2022-11-04T16:37:44.707Z,8.51
2022-11-04T16:40:14.007Z,8.81
2022-11-04T16:42:42.796Z,8.64
2022-11-04T16:45:19.374Z,8.72
2022-11-04T16:47:48.038Z,8.47
2022-11-04T16:50:19.168Z,8.53
2022-11-04T16:52:47.754Z,8.90
2022-11-04T16:55:16.830Z,8.71
2022-11-04T16:57:46.190Z,8.68
2022-11-04T17:00:21.076Z,8.81
2022-11-04T17:02:50.386Z,8.55
2022-11-04T17:05:21.319Z,8.80
2022-11-04T17:07:58.853Z,8.56
2022-11-04T17:10:35.893Z,8.44
2022-11-04T17:13:04.691Z,8.63
2022-11-04T17:15:33.560Z,8.49
2022-11-04T17:18:02.253Z,8.39
2022-11-04T17:20:33.003Z,8.78
2022-11-04T17:23:02.335Z,8.81
2022-11-04T17:25:31.648Z,8.64
2022-11-04T17:28:00.320Z,8.74
2022-11-04T17:30:29.060Z,8.57
2022-11-04T17:32:58.246Z,8.69
2022-11-04T17:35:27.154Z,8.45
2022-11-04T17:37:56.963Z,8.69
2022-11-04T17:40:25.916Z,8.73
2022-11-04T17:43:23.478Z,8.48
2022-11-04T17:46:13.247Z,8.57
2022-11-04T17:48:41.999Z,8.63
2022-11-04T17:51:11.017Z,8.27
2022-11-04T17:53:41.205Z,8.55
2022-11-04T17:56:15.333Z,8.78
2022-11-04T17:58:43.776Z,8.69
2022-11-04T18:01:13.772Z,8.57
2022-11-04T18:03:43.214Z,8.48
2022-11-04T18:06:12.118Z,8.78
2022-11-04T18:08:42.280Z,8.60
2022-11-04T18:11:12.734Z,8.59
2022-11-04T18:13:40.075Z,8.39
2022-11-04T18:16:11.972Z,8.34
2022-11-04T18:18:40.820Z,7.95
2022-11-04T18:21:11.062Z,8.28
2022-11-04T18:23:41.175Z,8.16
2022-11-04T18:26:10.269Z,8.37
2022-11-04T18:28:38.900Z,8.47
2022-11-04T18:31:09.704Z,8.33
2022-11-04T18:33:42.633Z,8.55
2022-11-04T18:36:11.752Z,8.43
2022-11-04T18:38:41.806Z,8.66
2022-11-04T18:41:10.595Z,8.44
2022-11-04T18:43:38.927Z,8.55
2022-11-04T18:46:09.697Z,8.58
2022-11-04T18:48:38.703Z,8.48
2022-11-04T18:51:09.643Z,8.12
2022-11-04T18:53:38.710Z,8.56
2022-11-04T18:56:10.779Z,8.79
2022-11-04T18:58:40.345Z,8.65
2022-11-04T19:01:11.023Z,8.58
2022-11-04T19:03:40.187Z,8.59
2022-11-04T19:06:10.269Z,8.69
2022-11-04T19:08:45.304Z,8.75
2022-11-04T19:11:19.694Z,8.69
2022-11-04T19:13:51.687Z,8.83
2022-11-04T19:16:20.440Z,8.58
2022-11-04T19:18:49.607Z,8.74
2022-11-04T19:21:19.910Z,8.71
2022-11-04T19:23:48.629Z,8.80
2022-11-04T19:26:20.640Z,8.67
2022-11-04T19:28:50.081Z,8.64
2022-11-04T19:31:21.029Z,8.48
2022-11-04T19:33:50.113Z,8.31
2022-11-04T19:36:21.112Z,8.66
2022-11-04T19:38:52.634Z,8.54
2022-11-04T19:41:41.680Z,8.64
2022-11-04T19:44:12.261Z,8.83
2022-11-04T19:46:41.616Z,8.80
2022-11-04T19:49:12.522Z,8.57
2022-11-04T19:51:41.807Z,8.66
2022-11-04T19:54:11.259Z,8.80
2022-11-04T19:56:42.691Z,8.95
2022-11-04T19:59:12.489Z,8.96
2022-11-04T20:01:41.066Z,8.67
2022-11-04T20:04:10.713Z,8.66
2022-11-04T20:06:39.722Z,8.74
2022-11-04T20:09:11.081Z,8.66
2022-11-04T20:11:56.062Z,8.55
2022-11-04T20:14:24.784Z,8.48
2022-11-04T20:16:53.164Z,8.62
2022-11-04T20:19:23.094Z,8.59
2022-11-04T20:21:52.437Z,8.48
2022-11-04T20:24:21.106Z,8.46
2022-11-04T20:26:51.135Z,8.31
2022-11-04T20:29:19.990Z,8.21
2022-11-04T20:31:48.418Z,8.22
2022-11-04T20:34:17.062Z,8.14
2022-11-04T20:36:45.834Z,8.21
2022-11-04T20:39:16.797Z,8.16
2022-11-04T20:41:45.924Z,8.06
2022-11-04T20:44:16.668Z,8.17
2022-11-04T20:46:44.922Z,8.19
2022-11-04T20:49:14.153Z,7.79
2022-11-04T20:51:54.512Z,8.09
2022-11-04T20:54:24.140Z,8.09
2022-11-04T20:56:52.733Z,8.07
2022-11-04T20:59:22.776Z,8.17
2022-11-04T21:01:51.220Z,8.07
2022-11-04T21:04:21.482Z,8.01
2022-11-04T21:06:51.468Z,8.05
2022-11-04T21:09:21.858Z,7.82
2022-11-04T21:11:51.411Z,8.03
2022-11-04T21:14:20.430Z,7.97
2022-11-04T21:16:50.146Z,8.07
2022-11-04T21:19:22.000Z,8.21
2022-11-04T21:21:51.442Z,8.09
2022-11-04T21:24:20.099Z,8.12
2022-11-04T21:26:49.094Z,8.09
2022-11-04T21:29:19.462Z,8.03
2022-11-04T21:31:49.848Z,8.03
2022-11-04T21:34:18.536Z,7.86
2022-11-04T21:36:47.215Z,8.08
2022-11-04T21:39:15.974Z,8.21
2022-11-04T21:41:44.756Z,7.98
2022-11-04T21:44:14.440Z,8.20
2022-11-04T21:46:43.405Z,8.08
2022-11-04T21:49:16.649Z,8.08
2022-11-04T21:51:45.226Z,7.76
2022-11-04T21:54:13.786Z,7.79
2022-11-04T21:56:42.582Z,7.98
2022-11-04T21:59:17.976Z,7.84
2022-11-04T22:01:46.874Z,7.68
2022-11-04T22:04:17.127Z,7.52
2022-11-04T22:06:47.179Z,8.07
2022-11-04T22:09:15.772Z,8.15
2022-11-04T22:11:44.543Z,8.17
2022-11-04T22:14:13.624Z,7.86
2022-11-04T22:16:41.967Z,8.05
2022-11-04T22:19:13.589Z,8.22
2022-11-04T22:21:45.473Z,8.03
2022-11-04T22:24:16.053Z,8.31
2022-11-04T22:26:44.720Z,8.14
2022-11-04T22:29:13.362Z,8.11
2022-11-04T22:31:43.114Z,8.18
2022-11-04T22:34:12.223Z,8.00
2022-11-04T22:36:41.132Z,8.07
2022-11-04T22:39:16.865Z,8.14
2022-11-04T22:41:47.196Z,8.30
2022-11-04T22:44:16.196Z,7.89
2022-11-04T22:46:44.780Z,8.17
2022-11-04T22:49:14.608Z,8.23
2022-11-04T22:51:43.373Z,7.98
2022-11-04T22:54:13.405Z,7.55
2022-11-04T22:56:42.162Z,8.00
2022-11-04T22:59:11.353Z,7.83
2022-11-04T23:01:39.707Z,8.13
2022-11-04T23:04:11.912Z,7.99
2022-11-04T23:06:40.973Z,8.11
2022-11-04T23:09:09.802Z,8.01
2022-11-04T23:11:57.356Z,8.13
2022-11-04T23:14:43.316Z,7.63
2022-11-04T23:17:34.431Z,7.68
2022-11-04T23:20:03.768Z,7.99
2022-11-04T23:22:49.573Z,8.00
2022-11-04T23:25:18.972Z,7.82
2022-11-04T23:28:07.712Z,7.62
2022-11-04T23:30:38.868Z,7.96
2022-11-04T23:33:09.058Z,8.25
2022-11-04T23:35:55.892Z,8.10
2022-11-04T23:38:24.690Z,7.98
2022-11-04T23:41:21.314Z,8.01
2022-11-04T23:43:51.365Z,8.11
2022-11-04T23:46:42.638Z,8.01
2022-11-04T23:49:29.907Z,8.03
2022-11-04T23:52:15.950Z,7.04
2022-11-04T23:55:02.067Z,7.61
2022-11-04T23:57:48.337Z,7.61
